createdAt,value
2023-01-04T00:01:09.924Z,96598.34
2023-01-04T00:03:36.728Z,96596.16
2023-01-04T00:06:05.909Z,96600.25
2023-01-04T00:08:33.162Z,96597.78
2023-01-04T00:11:07.699Z,96602.97
2023-01-04T00:13:34.878Z,96595.59
2023-01-04T00:16:08.454Z,96582.28
2023-01-04T00:18:36.971Z,96592.06
2023-01-04T00:21:12.342Z,96583.09
2023-01-04T00:23:40.711Z,96583.09
2023-01-04T00:26:12.130Z,96589.91
2023-01-04T00:28:39.664Z,96565.94
2023-01-04T00:31:08.667Z,96563.50
2023-01-04T00:33:35.340Z,96579.81
2023-01-04T00:36:04.269Z,96562.94
2023-01-04T00:38:31.724Z,96549.06
2023-01-04T00:40:58.631Z,96549.88
2023-01-04T00:43:25.664Z,96550.97
2023-01-04T00:45:52.728Z,96548.25
2023-01-04T00:48:19.602Z,96538.44
2023-01-04T00:50:47.169Z,96537.34
2023-01-04T00:53:15.429Z,96534.63
2023-01-04T00:55:42.404Z,96523.19
2023-01-04T00:58:09.328Z,96534.09
2023-01-04T01:00:36.578Z,96526.47
2023-01-04T01:03:03.840Z,96529.72
2023-01-04T01:05:30.937Z,96513.41
2023-01-04T01:07:57.760Z,96519.38
2023-01-04T01:10:24.351Z,96519.13
2023-01-04T01:12:50.976Z,96516.66
2023-01-04T01:15:17.678Z,96510.41
2023-01-04T01:17:44.288Z,96504.97
2023-01-04T01:20:11.246Z,96501.69
2023-01-04T01:22:37.884Z,96508.50
2023-01-04T01:25:05.169Z,96511.22
2023-01-04T01:27:31.754Z,96502.78
2023-01-04T01:29:59.165Z,96494.34
2023-01-04T01:32:25.737Z,96487.00
2023-01-04T01:34:52.728Z,96495.41
2023-01-04T01:37:19.420Z,96482.91
2023-01-04T01:39:46.359Z,96489.97
2023-01-04T01:42:21.098Z,96509.84
2023-01-04T01:44:58.975Z,96497.59
2023-01-04T01:47:34.182Z,96478.53
2023-01-04T01:50:01.822Z,96483.69
2023-01-04T01:52:33.094Z,96488.31
2023-01-04T01:55:02.655Z,96482.88
2023-01-04T01:57:33.532Z,96474.16
2023-01-04T02:00:07.874Z,96474.44
2023-01-04T02:02:35.029Z,96473.63
2023-01-04T02:05:03.035Z,96471.72
2023-01-04T02:07:29.987Z,96466.81
2023-01-04T02:09:58.561Z,96478.50
2023-01-04T02:12:25.891Z,96467.06
2023-01-04T02:14:52.530Z,96454.53
2023-01-04T02:17:28.871Z,96460.00
2023-01-04T02:20:17.357Z,96450.75
2023-01-04T02:23:41.316Z,96445.56
2023-01-04T02:26:45.923Z,96447.75
2023-01-04T02:29:47.803Z,96448.03
2023-01-04T02:32:45.942Z,96453.47
2023-01-04T02:35:34.330Z,96443.66
2023-01-04T02:38:19.517Z,96443.13
2023-01-04T02:41:05.640Z,96440.66
2023-01-04T02:44:21.481Z,96438.22
2023-01-04T02:46:56.750Z,96420.22
2023-01-04T02:49:42.136Z,96416.16
2023-01-04T02:52:12.875Z,96411.78
2023-01-04T02:54:40.496Z,96408.78
2023-01-04T02:57:22.116Z,96399.50
2023-01-04T03:00:11.952Z,96395.44
2023-01-04T03:03:06.656Z,96394.63
2023-01-04T03:06:06.898Z,96392.16
2023-01-04T03:08:47.877Z,96381.53
2023-01-04T03:11:35.347Z,96372.00
2023-01-04T03:14:30.851Z,96377.72
2023-01-04T03:16:53.741Z,96376.34
2023-01-04T03:19:42.645Z,96385.88
2023-01-04T03:22:32.439Z,96370.06
2023-01-04T03:25:20.396Z,96361.94
2023-01-04T03:28:16.684Z,96374.19
2023-01-04T03:31:17.964Z,96374.44
2023-01-04T03:34:03.988Z,96375.53
2023-01-04T03:37:02.962Z,96366.28
2023-01-04T03:39:55.229Z,96357.56
2023-01-04T03:42:49.979Z,96374.44
2023-01-04T03:45:44.440Z,96376.59
2023-01-04T03:48:35.396Z,96372.00
2023-01-04T03:51:14.909Z,96365.97
2023-01-04T03:54:08.990Z,96357.78
2023-01-04T03:56:38.475Z,96368.91
2023-01-04T03:59:05.958Z,96353.94
2023-01-04T04:01:32.941Z,96353.94
2023-01-04T04:04:18.197Z,96364.28
2023-01-04T04:07:03.860Z,96362.38
2023-01-04T04:09:30.916Z,96352.06
2023-01-04T04:11:58.512Z,96356.13
2023-01-04T04:14:25.388Z,96364.28
2023-01-04T04:16:51.974Z,96353.06
2023-01-04T04:19:19.289Z,96366.69
2023-01-04T04:21:46.051Z,96362.56
2023-01-04T04:24:21.722Z,96361.22
2023-01-04T04:26:48.595Z,96359.59
2023-01-04T04:29:15.332Z,96348.13
2023-01-04T04:31:42.077Z,96353.59
2023-01-04T04:34:10.669Z,96343.78
2023-01-04T04:36:37.679Z,96343.56
2023-01-04T04:39:04.652Z,96324.47
2023-01-04T04:41:41.662Z,96331.28
2023-01-04T04:44:19.624Z,96321.94
2023-01-04T04:46:48.044Z,96326.84
2023-01-04T04:49:15.494Z,96333.38
2023-01-04T04:51:43.768Z,96338.53
2023-01-04T04:54:14.352Z,96326.25
2023-01-04T04:56:40.968Z,96318.63
2023-01-04T04:59:07.534Z,96323.22
2023-01-04T05:01:34.628Z,96315.53
2023-01-04T05:04:01.390Z,96314.72
2023-01-04T05:06:28.477Z,96302.75
2023-01-04T05:08:55.096Z,96319.59
2023-01-04T05:11:41.747Z,96321.50
2023-01-04T05:14:09.342Z,96322.03
2023-01-04T05:16:36.798Z,96332.94
2023-01-04T05:19:05.097Z,96311.13
2023-01-04T05:21:31.797Z,96317.41
2023-01-04T05:23:58.357Z,96303.19
2023-01-04T05:26:25.118Z,96308.66
2023-01-04T05:28:54.169Z,96306.50
2023-01-04T05:31:22.025Z,96296.69
2023-01-04T05:33:48.725Z,96296.13
2023-01-04T05:36:15.351Z,96304.00
2023-01-04T05:38:41.944Z,96286.59
2023-01-04T05:41:28.768Z,96280.56
2023-01-04T05:43:55.675Z,96265.84
2023-01-04T05:46:22.332Z,96278.66
2023-01-04T05:48:48.992Z,96265.59
2023-01-04T05:51:15.629Z,96268.56
2023-01-04T05:53:42.373Z,96267.22
2023-01-04T05:56:09.013Z,96265.25
2023-01-04T05:58:35.773Z,96254.09
2023-01-04T06:01:02.379Z,96249.47
2023-01-04T06:03:29.201Z,96243.19
2023-01-04T06:05:55.857Z,96247.84
2023-01-04T06:08:22.448Z,96249.22
2023-01-04T06:10:55.426Z,96241.00
2023-01-04T06:13:22.031Z,96245.34
2023-01-04T06:15:48.573Z,96241.81
2023-01-04T06:18:15.218Z,96241.00
2023-01-04T06:20:43.739Z,96242.63
2023-01-04T06:23:10.938Z,96246.44
2023-01-04T06:25:38.136Z,96244.78
2023-01-04T06:28:04.909Z,96242.06
2023-01-04T06:30:31.892Z,96239.91
2023-01-04T06:32:58.607Z,96255.66
2023-01-04T06:35:25.206Z,96244.72
2023-01-04T06:37:51.957Z,96246.66
2023-01-04T06:40:18.637Z,96233.63
2023-01-04T06:42:45.208Z,96239.31
2023-01-04T06:45:13.770Z,96258.09
2023-01-04T06:47:41.196Z,96266.56
2023-01-04T06:50:09.247Z,96261.38
2023-01-04T06:52:36.067Z,96251.25
2023-01-04T06:55:02.746Z,96246.06
2023-01-04T06:57:30.265Z,96247.06
2023-01-04T06:59:57.018Z,96242.13
2023-01-04T07:02:23.739Z,96244.06
2023-01-04T07:04:50.523Z,96262.34
2023-01-04T07:07:17.263Z,96259.59
2023-01-04T07:09:43.837Z,96245.09
2023-01-04T07:12:10.515Z,96249.47
2023-01-04T07:14:38.495Z,96237.22
2023-01-04T07:17:05.031Z,96242.91
2023-01-04T07:19:32.054Z,96246.69
2023-01-04T07:21:58.996Z,96226.53
2023-01-04T07:24:30.043Z,96250.00
2023-01-04T07:26:59.373Z,96250.75
2023-01-04T07:29:26.212Z,96247.53
2023-01-04T07:31:53.118Z,96244.53
2023-01-04T07:34:23.278Z,96251.03
2023-01-04T07:36:50.754Z,96247.19
2023-01-04T07:39:19.112Z,96258.13
2023-01-04T07:41:47.010Z,96254.88
2023-01-04T07:44:14.225Z,96263.00
2023-01-04T07:46:41.307Z,96247.19
2023-01-04T07:49:17.535Z,96267.63
2023-01-04T07:51:48.163Z,96252.91
2023-01-04T07:54:15.889Z,96252.91
2023-01-04T07:56:43.135Z,96239.53
2023-01-04T07:59:13.895Z,96249.59
2023-01-04T08:01:42.960Z,96243.03
2023-01-04T08:04:11.023Z,96240.59
2023-01-04T08:06:38.551Z,96242.22
2023-01-04T08:09:06.599Z,96248.16
2023-01-04T08:11:34.168Z,96242.69
2023-01-04T08:14:02.433Z,96242.97
2023-01-04T08:16:32.838Z,96243.72
2023-01-04T08:19:02.261Z,96245.94
2023-01-04T08:21:30.486Z,96256.28
2023-01-04T08:23:57.092Z,96248.09
2023-01-04T08:26:23.756Z,96244.53
2023-01-04T08:28:50.997Z,96242.28
2023-01-04T08:31:20.493Z,96245.28
2023-01-04T08:33:48.084Z,96221.94
2023-01-04T08:36:26.607Z,96227.19
2023-01-04T08:39:02.312Z,96207.59
2023-01-04T08:41:56.808Z,96209.78
2023-01-04T08:44:19.119Z,96213.56
2023-01-04T08:46:47.694Z,96214.91
2023-01-04T08:49:16.708Z,96219.88
2023-01-04T08:51:43.983Z,96213.53
2023-01-04T08:54:13.152Z,96220.63
2023-01-04T08:56:40.482Z,96228.50
2023-01-04T08:59:07.993Z,96234.25
2023-01-04T09:01:35.873Z,96232.50
2023-01-04T09:04:03.170Z,96222.75
2023-01-04T09:06:30.368Z,96225.72
2023-01-04T09:08:57.692Z,96227.03
2023-01-04T09:11:25.459Z,96223.16
2023-01-04T09:14:04.290Z,96219.91
2023-01-04T09:16:33.974Z,96231.34
2023-01-04T09:19:00.780Z,96223.22
2023-01-04T09:21:27.675Z,96222.84
2023-01-04T09:23:54.654Z,96230.00
2023-01-04T09:26:23.412Z,96222.78
2023-01-04T09:28:51.764Z,96214.00
2023-01-04T09:31:22.072Z,96219.19
2023-01-04T09:36:37.013Z,96216.81
2023-01-04T09:39:04.196Z,96216.81
2023-01-04T09:41:37.847Z,96224.44
2023-01-04T09:44:07.510Z,96229.38
2023-01-04T09:46:48.070Z,96219.63
2023-01-04T09:49:25.569Z,96214.75
2023-01-04T09:52:01.349Z,96222.06
2023-01-04T09:54:36.117Z,96229.44
2023-01-04T09:57:03.959Z,96221.19
2023-01-04T09:59:32.734Z,96195.25
2023-01-04T10:02:32.631Z,96215.50
2023-01-04T10:05:02.150Z,96221.31
2023-01-04T10:07:33.633Z,96215.84
2023-01-04T10:10:00.967Z,96217.72
2023-01-04T10:12:59.527Z,96223.31
2023-01-04T10:15:56.228Z,96224.34
2023-01-04T10:21:34.897Z,96207.88
2023-01-04T10:24:38.319Z,96214.47
2023-01-04T10:27:26.405Z,96213.56
2023-01-04T10:30:16.501Z,96211.66
2023-01-04T10:32:52.757Z,96213.72
2023-01-04T10:35:25.768Z,96194.38
2023-01-04T10:37:57.942Z,96202.78
2023-01-04T10:40:27.625Z,96188.97
2023-01-04T10:43:07.321Z,96196.38
2023-01-04T10:45:54.400Z,96181.09
2023-01-04T10:48:35.955Z,96192.63
2023-01-04T10:51:09.911Z,96188.59
2023-01-04T10:53:40.545Z,96194.47
2023-01-04T10:56:28.424Z,96189.06
2023-01-04T10:59:14.514Z,96184.63
2023-01-04T11:02:16.170Z,96192.25
2023-01-04T11:04:49.554Z,96174.72
2023-01-04T11:07:21.407Z,96163.28
2023-01-04T11:09:57.682Z,96164.00
2023-01-04T11:12:24.544Z,96172.50
2023-01-04T11:14:51.798Z,96167.03
2023-01-04T11:17:21.458Z,96166.38
2023-01-04T11:19:48.200Z,96166.44
2023-01-04T11:22:32.300Z,96165.94
2023-01-04T11:25:34.467Z,96151.59
2023-01-04T11:28:01.810Z,96150.13
2023-01-04T11:30:51.366Z,96152.78
2023-01-04T11:33:20.559Z,96139.03
2023-01-04T11:35:53.631Z,96146.13
2023-01-04T11:38:27.782Z,96143.47
2023-01-04T11:41:01.279Z,96140.72
2023-01-04T11:43:32.855Z,96152.41
2023-01-04T11:46:19.702Z,96135.69
2023-01-04T11:48:48.204Z,96153.22
2023-01-04T11:51:25.684Z,96134.56
2023-01-04T11:54:05.213Z,96144.09
2023-01-04T11:56:33.908Z,96145.22
2023-01-04T11:59:24.586Z,96143.72
2023-01-04T12:02:11.054Z,96153.13
2023-01-04T12:04:38.222Z,96143.28
2023-01-04T12:07:23.409Z,96130.59
2023-01-04T12:09:49.973Z,96134.78
2023-01-04T12:12:16.679Z,96136.41
2023-01-04T12:14:50.255Z,96137.53
2023-01-04T12:17:21.106Z,96127.59
2023-01-04T12:19:49.076Z,96136.44
2023-01-04T12:22:33.990Z,96131.88
2023-01-04T12:25:02.221Z,96116.50
2023-01-04T12:27:29.353Z,96105.84
2023-01-04T12:29:59.101Z,96106.06
2023-01-04T12:32:25.711Z,96102.41
2023-01-04T12:34:53.178Z,96104.34
2023-01-04T12:37:38.083Z,96089.25
2023-01-04T12:40:43.259Z,96099.06
2023-01-04T12:43:15.870Z,96097.75
2023-01-04T12:45:43.370Z,96093.41
2023-01-04T12:48:48.832Z,96102.63
2023-01-04T12:51:46.837Z,96077.28
2023-01-04T12:54:24.413Z,96074.56
2023-01-04T12:57:17.129Z,96079.63
2023-01-04T13:00:00.322Z,96078.72
2023-01-04T13:02:30.270Z,96076.19
2023-01-04T13:08:03.704Z,96074.06
2023-01-04T13:10:36.265Z,96071.81
2023-01-04T13:13:33.988Z,96075.09
2023-01-04T13:16:26.954Z,96055.72
2023-01-04T13:18:59.042Z,96054.59
2023-01-04T13:21:35.013Z,96069.09
2023-01-04T13:24:35.402Z,96046.38
2023-01-04T13:27:08.210Z,96068.41
2023-01-04T13:29:36.577Z,96075.31
2023-01-04T13:32:06.286Z,96058.88
2023-01-04T13:34:56.249Z,96064.25
2023-01-04T13:37:26.450Z,96048.13
2023-01-04T13:40:09.093Z,96057.34
2023-01-04T13:42:39.709Z,96056.84
2023-01-04T13:45:19.036Z,96054.63
2023-01-04T13:47:49.297Z,96059.78
2023-01-04T13:50:35.883Z,96047.53
2023-01-04T13:53:07.936Z,96054.50
2023-01-04T13:55:37.828Z,96059.56
2023-01-04T13:58:18.649Z,96041.13
2023-01-04T14:01:13.189Z,96049.94
2023-01-04T14:03:46.441Z,96054.41
2023-01-04T14:06:24.178Z,96064.75
2023-01-04T14:09:00.721Z,96050.44
2023-01-04T14:11:51.143Z,96057.53
2023-01-04T14:14:23.044Z,96046.69
2023-01-04T14:16:51.246Z,96048.00
2023-01-04T14:19:46.737Z,96065.13
2023-01-04T14:22:27.948Z,96052.66
2023-01-04T14:25:12.501Z,96041.59
2023-01-04T14:27:42.782Z,96044.84
2023-01-04T14:30:25.966Z,96045.16
2023-01-04T14:32:59.764Z,96047.28
2023-01-04T14:35:28.005Z,96053.06
2023-01-04T14:38:02.413Z,96031.66
2023-01-04T14:40:31.806Z,96022.13
2023-01-04T14:42:58.814Z,96039.75
2023-01-04T14:45:25.592Z,96025.56
2023-01-04T14:47:52.204Z,96047.78
2023-01-04T14:50:19.012Z,96045.53
2023-01-04T14:52:53.112Z,96042.50
2023-01-04T14:55:20.822Z,96014.94
2023-01-04T14:57:47.398Z,96029.00
2023-01-04T15:00:19.507Z,96032.34
2023-01-04T15:02:50.802Z,96033.78
2023-01-04T15:05:20.540Z,96035.22
2023-01-04T15:07:48.037Z,96027.19
2023-01-04T15:10:22.827Z,96028.94
2023-01-04T15:12:50.182Z,96015.81
2023-01-04T15:15:16.869Z,96032.25
2023-01-04T15:17:43.543Z,96035.97
2023-01-04T15:20:12.081Z,96035.19
2023-01-04T15:22:39.735Z,96030.69
2023-01-04T15:25:07.711Z,96023.09
2023-01-04T15:27:39.993Z,96022.28
2023-01-04T15:30:10.521Z,96029.56
2023-01-04T15:32:37.376Z,96018.63
2023-01-04T15:35:04.370Z,96010.72
2023-01-04T15:37:31.359Z,96006.56
2023-01-04T15:40:02.192Z,96003.19
2023-01-04T15:42:48.891Z,96015.47
2023-01-04T15:45:15.615Z,95995.16
2023-01-04T15:47:42.717Z,95997.78
2023-01-04T15:50:09.858Z,96005.69
2023-01-04T15:52:36.690Z,95996.84
2023-01-04T15:55:03.466Z,96008.03
2023-01-04T15:57:30.284Z,96000.31
2023-01-04T15:59:56.956Z,96009.84
2023-01-04T16:02:23.865Z,95990.38
2023-01-04T16:04:50.779Z,95992.41
2023-01-04T16:07:18.049Z,95991.78
2023-01-04T16:09:44.954Z,95995.63
2023-01-04T16:12:30.291Z,95995.13
2023-01-04T16:14:56.920Z,95990.47
2023-01-04T16:17:24.528Z,95995.00
2023-01-04T16:19:51.167Z,95990.97
2023-01-04T16:22:18.004Z,95990.97
2023-01-04T16:25:09.805Z,95994.81
2023-01-04T16:27:35.422Z,95989.53
2023-01-04T16:30:04.365Z,95987.47
2023-01-04T16:32:31.324Z,95994.06
2023-01-04T16:34:57.896Z,95980.50
2023-01-04T16:37:28.926Z,95975.34
2023-01-04T16:40:10.833Z,95993.25
2023-01-04T16:42:38.280Z,95983.44
2023-01-04T16:45:06.296Z,95987.59
2023-01-04T16:47:39.432Z,95991.47
2023-01-04T16:50:07.197Z,96002.72
2023-01-04T16:52:33.859Z,96002.09
2023-01-04T16:55:00.501Z,96006.66
2023-01-04T16:57:27.250Z,96011.00
2023-01-04T16:59:53.857Z,96015.09
2023-01-04T17:02:20.623Z,96005.03
2023-01-04T17:04:52.960Z,96002.69
2023-01-04T17:07:19.750Z,96012.03
2023-01-04T17:09:46.481Z,96005.75
2023-01-04T17:15:40.815Z,96010.28
2023-01-04T17:17:46.510Z,96009.47
2023-01-04T17:20:13.192Z,96028.66
2023-01-04T17:22:40.583Z,96030.28
2023-01-04T17:25:07.745Z,96036.09
2023-01-04T17:27:35.364Z,96033.34
2023-01-04T17:30:02.119Z,96031.78
2023-01-04T17:32:30.404Z,96043.25
2023-01-04T17:34:58.184Z,96037.75
2023-01-04T17:37:25.210Z,96025.19
2023-01-04T17:39:51.907Z,96035.03
2023-01-04T17:42:18.867Z,96043.25
2023-01-04T17:44:46.063Z,96040.81
2023-01-04T17:47:12.682Z,96029.66
2023-01-04T17:49:39.369Z,96036.75
2023-01-04T17:52:08.744Z,96024.63
2023-01-04T17:54:36.014Z,96016.41
2023-01-04T17:57:02.596Z,96020.56
2023-01-04T17:59:29.128Z,96030.69
2023-01-04T18:01:55.748Z,96040.34
2023-01-04T18:04:22.894Z,96034.88
2023-01-04T18:06:49.427Z,96033.75
2023-01-04T18:09:20.204Z,96042.19
2023-01-04T18:11:49.152Z,96044.63
2023-01-04T18:14:15.799Z,96035.91
2023-01-04T18:16:58.602Z,96045.22
2023-01-04T18:19:31.635Z,96041.66
2023-01-04T18:21:58.881Z,96013.44
2023-01-04T18:24:41.986Z,96035.97
2023-01-04T18:27:27.426Z,96034.88
2023-01-04T18:29:56.061Z,96059.53
2023-01-04T18:32:25.008Z,96062.97
2023-01-04T18:34:52.258Z,96061.38
2023-01-04T18:37:19.288Z,96069.91
2023-01-04T18:39:47.182Z,96049.06
2023-01-04T18:42:14.041Z,96045.72
2023-01-04T18:44:46.055Z,96040.25
2023-01-04T18:47:15.704Z,96039.75
2023-01-04T18:49:42.380Z,96051.09
2023-01-04T18:52:14.656Z,96063.97
2023-01-04T18:54:41.633Z,96063.19
2023-01-04T18:57:08.225Z,96075.69
2023-01-04T18:59:35.122Z,96061.81
2023-01-04T19:02:03.087Z,96066.16
2023-01-04T19:04:32.078Z,96071.66
2023-01-04T19:06:59.378Z,96060.19
2023-01-04T19:09:26.068Z,96063.09
2023-01-04T19:11:52.804Z,96061.00
2023-01-04T19:14:19.569Z,96053.59
2023-01-04T19:16:46.265Z,96073.25
2023-01-04T19:19:12.916Z,96071.84
2023-01-04T19:21:39.867Z,96058.25
2023-01-04T19:24:06.565Z,96063.91
2023-01-04T19:26:33.211Z,96067.78
2023-01-04T19:28:59.912Z,96061.81
2023-01-04T19:31:26.506Z,96060.50
2023-01-04T19:33:53.315Z,96061.00
2023-01-04T19:36:20.064Z,96069.22
2023-01-04T19:38:47.137Z,96073.25
2023-01-04T19:41:21.257Z,96065.34
2023-01-04T19:43:48.341Z,96062.44
2023-01-04T19:46:15.897Z,96049.84
2023-01-04T19:48:43.410Z,96073.69
2023-01-04T19:51:16.573Z,96083.22
2023-01-04T19:53:45.515Z,96071.16
2023-01-04T19:56:13.701Z,96061.63
2023-01-04T19:58:40.521Z,96054.81
2023-01-04T20:01:07.583Z,96070.16
2023-01-04T20:03:34.448Z,96060.31
2023-01-04T20:06:03.474Z,96056.94
2023-01-04T20:08:30.822Z,96054.19
2023-01-04T20:10:59.181Z,96069.03
2023-01-04T20:13:26.818Z,96059.81
2023-01-04T20:15:53.541Z,96029.66
2023-01-04T20:18:21.693Z,96060.31
2023-01-04T20:20:48.350Z,96035.66
2023-01-04T20:23:16.053Z,96028.53
2023-01-04T20:25:48.026Z,96030.47
2023-01-04T20:28:15.620Z,96056.25
2023-01-04T20:30:42.522Z,96042.69
2023-01-04T20:33:10.875Z,96047.34
2023-01-04T20:35:39.313Z,96032.94
2023-01-04T20:38:05.937Z,96019.03
2023-01-04T20:40:33.822Z,96035.78
2023-01-04T20:43:19.473Z,64502.56
2023-01-04T20:45:47.632Z,64502.56
2023-01-04T20:48:15.752Z,64502.56
2023-01-04T20:50:43.166Z,96033.34
2023-01-04T20:53:11.666Z,96047.13
2023-01-04T20:55:44.144Z,96060.00
2023-01-04T20:58:13.085Z,96064.66
2023-01-04T21:00:41.262Z,96067.41
2023-01-04T21:03:10.620Z,96061.75
2023-01-04T21:05:38.980Z,96055.44
2023-01-04T21:08:06.198Z,96067.72
2023-01-04T21:10:32.863Z,96064.97
2023-01-04T21:12:59.412Z,96045.78
2023-01-04T21:15:26.236Z,96037.69
2023-01-04T21:17:52.850Z,96031.78
2023-01-04T21:20:21.628Z,96041.63
2023-01-04T21:22:48.353Z,96032.59
2023-01-04T21:25:15.614Z,96025.38
2023-01-04T21:27:42.179Z,96015.06
2023-01-04T21:30:09.345Z,96029.28
2023-01-04T21:32:36.105Z,95989.78
2023-01-04T21:35:02.938Z,96023.47
2023-01-04T21:37:29.717Z,96005.28
2023-01-04T21:39:56.313Z,96021.91
2023-01-04T21:42:22.867Z,96035.19
2023-01-04T21:44:49.611Z,96015.66
2023-01-04T21:47:16.217Z,96013.44
2023-01-04T21:49:44.043Z,96030.38
2023-01-04T21:52:11.668Z,96030.69
2023-01-04T21:54:45.256Z,96027.13
2023-01-04T21:57:11.814Z,96001.16
2023-01-04T21:59:38.534Z,96010.19
2023-01-04T22:02:06.095Z,96015.84
2023-01-04T22:04:33.530Z,95983.25
2023-01-04T22:07:01.579Z,96004.06
2023-01-04T22:09:28.583Z,96000.53
2023-01-04T22:11:55.248Z,95971.97
2023-01-04T22:14:21.866Z,96016.34
2023-01-04T22:16:48.405Z,96002.63
2023-01-04T22:19:15.202Z,96015.41
2023-01-04T22:21:42.798Z,95980.06
2023-01-04T22:24:12.242Z,96011.53
2023-01-04T22:26:39.448Z,95969.41
2023-01-04T22:29:06.393Z,96011.91
2023-01-04T22:31:33.242Z,96007.03
2023-01-04T22:34:00.125Z,96003.81
2023-01-04T22:36:27.353Z,96021.28
2023-01-04T22:38:56.097Z,95993.31
2023-01-04T22:41:25.786Z,96011.72
2023-01-04T22:44:00.765Z,96014.66
2023-01-04T22:46:28.890Z,96023.69
2023-01-04T22:48:56.308Z,96023.88
2023-01-04T22:51:24.543Z,96043.75
2023-01-04T22:53:54.383Z,96042.13
2023-01-04T22:56:23.478Z,96039.34
2023-01-04T22:58:54.127Z,96043.78
2023-01-04T23:01:25.763Z,96053.75
2023-01-04T23:03:53.406Z,96047.41
2023-01-04T23:06:20.597Z,96050.78
2023-01-04T23:08:48.838Z,96060.63
2023-01-04T23:11:17.804Z,96057.00
2023-01-04T23:13:45.239Z,96048.09
2023-01-04T23:16:14.673Z,96045.47
2023-01-04T23:18:41.864Z,96042.88
2023-01-04T23:21:09.717Z,96042.06
2023-01-04T23:23:36.455Z,96038.00
2023-01-04T23:26:08.917Z,96050.41
2023-01-04T23:28:37.248Z,96050.19
2023-01-04T23:31:08.870Z,96051.31
2023-01-04T23:33:36.973Z,96038.97
2023-01-04T23:36:14.763Z,96058.03
2023-01-04T23:38:42.705Z,96054.59
2023-01-04T23:41:09.912Z,96052.75
2023-01-04T23:43:38.439Z,96047.59
2023-01-04T23:46:16.632Z,96059.97
2023-01-04T23:48:43.836Z,96061.41
2023-01-04T23:51:13.077Z,96068.38
2023-01-04T23:53:39.725Z,96065.00
2023-01-04T23:56:13.408Z,96054.22
2023-01-04T23:58:40.371Z,96041.16
